aviador You're here:

CYHU Decoded Metar

MONTREAL in QC, CANADA
Report Time2017-05-22 19:07:00
UTC Time2017-05-22 19:23:00
Flight Rules mvfr MVFR
Wind180° at 15 Gusting to 20 kt
W.Decomp.*RWY 24: 10.8 kt HW 10.4 kt LCW
RWY 28: 1.6 kt HW 14.9 kt LCW
W.Rank180° ranks 3
Current wind is above 180° avg. (9.4)
Visibility9999 m
Phenomena:Light Rain
Clouds:Overcast 017 Hf
Expected CloudBase > 1,200 ft AGL from Temp-Dew spread
Ceiling1,700 ft
Temp12°C (ISA -3)
Dew Point09°C (82% RH)
AAT6.4°C
QNH1014 hPa
Density Alt-125 ft
Elevation89 ft
Report Wrong Elevation
Raw Report
SPECI CYHU 221907Z AUTO 18015G20KT 9SM -RA OVC017 12/09 A2994 RMK SLP140=

Extra information for CYHU:More info

Metar Taf Metar & Taf Last 4 Metars F.Rules Stats Wind Profile Meteogram Temp Stats Airport Information Weather charts Add Link Nearby VenuesMetar ALERT Operation Metar Decoded Social comments